Nicolet, Canada
Current Conditions -  °F | °C
As of 8:13 AM on Saturday 20 Dec 2014 (Local Time) from CYRQ Reporting Station
Moderate Snow Moderate Snow  
Wind Chill: -2°   Ceiling: 200
Heat Index:   Visibility: 0.37mi
Dew Point:   Wind: 5mph
Humidity: 85%   Direction: 30°NNE
Pressure: 30.36"   Gusts: NA
Location:  46.43°N, 72.39°W
Report Text: CYRQ 201313Z AUTO 03004KT 3/8SM SN VV002 M14/M16 A3036 RMK SLP286
Loading
Personal Weather Stations






























Interactive Weather Map New forecast layout! Learn more

10-Day Weather Forecast

Advertisements
Track Severe Weather on mobile